sensor_id;sensor_type;location;lat;lon;timestamp;temperature;humidity
49413;DHT22;35493;50.276;9.372;2022-11-11T00:01:49;8.20;87.10
49413;DHT22;35493;50.276;9.372;2022-11-11T00:04:40;8.20;87.10
49413;DHT22;35493;50.276;9.372;2022-11-11T00:07:25;8.20;87.10
49413;DHT22;35493;50.276;9.372;2022-11-11T00:10:12;8.30;87.10
49413;DHT22;35493;50.276;9.372;2022-11-11T00:13:04;8.20;87.20
49413;DHT22;35493;50.276;9.372;2022-11-11T00:16:03;8.20;87.10
49413;DHT22;35493;50.276;9.372;2022-11-11T00:18:50;8.20;87.10
49413;DHT22;35493;50.276;9.372;2022-11-11T00:21:53;8.20;87.00
49413;DHT22;35493;50.276;9.372;2022-11-11T00:24:57;8.30;87.00
49413;DHT22;35493;50.276;9.372;2022-11-11T00:27:54;8.20;87.10
49413;DHT22;35493;50.276;9.372;2022-11-11T00:30:40;8.30;87.00
49413;DHT22;35493;50.276;9.372;2022-11-11T00:33:26;8.30;86.90
49413;DHT22;35493;50.276;9.372;2022-11-11T00:36:11;8.30;86.90
49413;DHT22;35493;50.276;9.372;2022-11-11T00:38:56;8.20;86.90
49413;DHT22;35493;50.276;9.372;2022-11-11T00:41:41;8.30;86.80
49413;DHT22;35493;50.276;9.372;2022-11-11T00:44:34;8.20;86.80
49413;DHT22;35493;50.276;9.372;2022-11-11T00:47:20;8.20;87.00
49413;DHT22;35493;50.276;9.372;2022-11-11T00:50:25;8.20;86.90
49413;DHT22;35493;50.276;9.372;2022-11-11T00:53:30;8.20;86.70
49413;DHT22;35493;50.276;9.372;2022-11-11T00:56:18;8.20;86.70
49413;DHT22;35493;50.276;9.372;2022-11-11T00:59:05;8.20;86.70
49413;DHT22;35493;50.276;9.372;2022-11-11T01:01:52;8.20;86.50
49413;DHT22;35493;50.276;9.372;2022-11-11T01:04:38;8.20;86.30
49413;DHT22;35493;50.276;9.372;2022-11-11T01:07:23;8.10;86.50
49413;DHT22;35493;50.276;9.372;2022-11-11T01:10:09;8.10;86.70
49413;DHT22;35493;50.276;9.372;2022-11-11T01:12:55;8.10;86.70
49413;DHT22;35493;50.276;9.372;2022-11-11T01:15:58;8.20;86.50
49413;DHT22;35493;50.276;9.372;2022-11-11T01:18:47;8.10;86.40
49413;DHT22;35493;50.276;9.372;2022-11-11T01:21:32;8.10;86.40
49413;DHT22;35493;50.276;9.372;2022-11-11T01:24:21;8.10;86.40
49413;DHT22;35493;50.276;9.372;2022-11-11T01:27:06;8.10;86.30
49413;DHT22;35493;50.276;9.372;2022-11-11T01:29:51;7.90;86.30
49413;DHT22;35493;50.276;9.372;2022-11-11T01:32:36;7.90;86.50
49413;DHT22;35493;50.276;9.372;2022-11-11T01:35:25;7.90;86.50
49413;DHT22;35493;50.276;9.372;2022-11-11T01:38:10;7.90;86.70
49413;DHT22;35493;50.276;9.372;2022-11-11T01:40:56;8.00;86.40
49413;DHT22;35493;50.276;9.372;2022-11-11T01:43:41;8.00;86.30
49413;DHT22;35493;50.276;9.372;2022-11-11T01:46:30;7.90;86.20
49413;DHT22;35493;50.276;9.372;2022-11-11T01:49:27;7.90;86.30
49413;DHT22;35493;50.276;9.372;2022-11-11T01:52:17;7.90;86.40
49413;DHT22;35493;50.276;9.372;2022-11-11T01:55:12;7.90;86.40
49413;DHT22;35493;50.276;9.372;2022-11-11T01:58:01;7.90;86.30
49413;DHT22;35493;50.276;9.372;2022-11-11T02:00:47;7.90;86.20
49413;DHT22;35493;50.276;9.372;2022-11-11T02:03:37;7.70;86.20
49413;DHT22;35493;50.276;9.372;2022-11-11T02:06:23;7.70;86.40
49413;DHT22;35493;50.276;9.372;2022-11-11T02:09:11;7.70;86.30
49413;DHT22;35493;50.276;9.372;2022-11-11T02:11:59;7.70;86.00
49413;DHT22;35493;50.276;9.372;2022-11-11T02:15:06;7.70;85.90
49413;DHT22;35493;50.276;9.372;2022-11-11T02:17:53;7.70;86.00
49413;DHT22;35493;50.276;9.372;2022-11-11T02:20:42;7.70;85.90
49413;DHT22;35493;50.276;9.372;2022-11-11T02:23:33;7.70;86.10
49413;DHT22;35493;50.276;9.372;2022-11-11T02:26:23;7.70;86.10
49413;DHT22;35493;50.276;9.372;2022-11-11T02:29:11;7.60;86.20
49413;DHT22;35493;50.276;9.372;2022-11-11T02:31:58;7.70;86.20
49413;DHT22;35493;50.276;9.372;2022-11-11T02:34:44;7.70;86.00
49413;DHT22;35493;50.276;9.372;2022-11-11T02:37:29;7.70;86.00
49413;DHT22;35493;50.276;9.372;2022-11-11T02:40:17;7.70;86.20
49413;DHT22;35493;50.276;9.372;2022-11-11T02:43:06;7.70;86.20
49413;DHT22;35493;50.276;9.372;2022-11-11T02:45:51;7.70;86.20
49413;DHT22;35493;50.276;9.372;2022-11-11T02:48:37;7.60;86.10
49413;DHT22;35493;50.276;9.372;2022-11-11T02:51:22;7.60;86.20
49413;DHT22;35493;50.276;9.372;2022-11-11T02:54:10;7.60;86.20
49413;DHT22;35493;50.276;9.372;2022-11-11T02:56:56;7.60;86.20
49413;DHT22;35493;50.276;9.372;2022-11-11T02:59:56;7.60;86.20
49413;DHT22;35493;50.276;9.372;2022-11-11T03:02:42;7.50;86.40
49413;DHT22;35493;50.276;9.372;2022-11-11T03:05:28;7.50;86.50
49413;DHT22;35493;50.276;9.372;2022-11-11T03:08:13;7.60;86.40
49413;DHT22;35493;50.276;9.372;2022-11-11T03:10:58;7.60;86.40
49413;DHT22;35493;50.276;9.372;2022-11-11T03:13:44;7.60;86.30
49413;DHT22;35493;50.276;9.372;2022-11-11T03:16:32;7.60;86.30
49413;DHT22;35493;50.276;9.372;2022-11-11T03:19:35;7.60;86.30
49413;DHT22;35493;50.276;9.372;2022-11-11T03:22:20;7.60;86.40
49413;DHT22;35493;50.276;9.372;2022-11-11T03:25:06;7.60;86.40
49413;DHT22;35493;50.276;9.372;2022-11-11T03:28:11;7.60;86.40
49413;DHT22;35493;50.276;9.372;2022-11-11T03:30:56;7.50;86.40
49413;DHT22;35493;50.276;9.372;2022-11-11T03:33:44;7.60;86.30
49413;DHT22;35493;50.276;9.372;2022-11-11T03:36:30;7.60;86.20
49413;DHT22;35493;50.276;9.372;2022-11-11T03:39:30;7.60;86.20
49413;DHT22;35493;50.276;9.372;2022-11-11T03:42:15;7.50;86.20
49413;DHT22;35493;50.276;9.372;2022-11-11T03:45:00;7.50;86.30
49413;DHT22;35493;50.276;9.372;2022-11-11T03:47:46;7.60;86.10
49413;DHT22;35493;50.276;9.372;2022-11-11T03:50:33;7.60;86.00
49413;DHT22;35493;50.276;9.372;2022-11-11T03:53:19;7.50;86.30
49413;DHT22;35493;50.276;9.372;2022-11-11T03:56:05;7.50;86.30
49413;DHT22;35493;50.276;9.372;2022-11-11T03:58:51;7.50;86.40
49413;DHT22;35493;50.276;9.372;2022-11-11T04:01:37;7.40;86.20
49413;DHT22;35493;50.276;9.372;2022-11-11T04:04:40;7.30;86.30
49413;DHT22;35493;50.276;9.372;2022-11-11T04:07:45;7.30;86.40
49413;DHT22;35493;50.276;9.372;2022-11-11T04:10:48;7.30;86.50
49413;DHT22;35493;50.276;9.372;2022-11-11T04:13:34;7.40;86.30
49413;DHT22;35493;50.276;9.372;2022-11-11T04:16:38;7.40;86.30
49413;DHT22;35493;50.276;9.372;2022-11-11T04:19:23;7.40;86.20
49413;DHT22;35493;50.276;9.372;2022-11-11T04:22:27;7.30;86.30
49413;DHT22;35493;50.276;9.372;2022-11-11T04:25:13;7.40;86.30
49413;DHT22;35493;50.276;9.372;2022-11-11T04:28:17;7.50;86.00
49413;DHT22;35493;50.276;9.372;2022-11-11T04:31:20;7.40;86.00
49413;DHT22;35493;50.276;9.372;2022-11-11T04:34:06;7.30;86.10
49413;DHT22;35493;50.276;9.372;2022-11-11T04:36:51;7.30;86.10
49413;DHT22;35493;50.276;9.372;2022-11-11T04:39:37;7.30;86.10
49413;DHT22;35493;50.276;9.372;2022-11-11T04:42:41;7.30;85.80
49413;DHT22;35493;50.276;9.372;2022-11-11T04:45:26;7.30;85.70
49413;DHT22;35493;50.276;9.372;2022-11-11T04:48:11;7.30;85.80
49413;DHT22;35493;50.276;9.372;2022-11-11T04:50:57;7.20;85.90
49413;DHT22;35493;50.276;9.372;2022-11-11T04:53:42;7.20;85.80
49413;DHT22;35493;50.276;9.372;2022-11-11T04:56:28;7.20;86.00
49413;DHT22;35493;50.276;9.372;2022-11-11T04:59:32;7.20;86.00
49413;DHT22;35493;50.276;9.372;2022-11-11T05:02:17;7.20;85.90
49413;DHT22;35493;50.276;9.372;2022-11-11T05:05:21;7.10;86.00
49413;DHT22;35493;50.276;9.372;2022-11-11T05:08:07;7.10;85.90
49413;DHT22;35493;50.276;9.372;2022-11-11T05:11:10;7.20;85.80
49413;DHT22;35493;50.276;9.372;2022-11-11T05:13:57;7.20;85.60
49413;DHT22;35493;50.276;9.372;2022-11-11T05:17:02;7.20;85.70
49413;DHT22;35493;50.276;9.372;2022-11-11T05:20:06;7.10;85.90
49413;DHT22;35493;50.276;9.372;2022-11-11T05:23:10;7.10;86.00
49413;DHT22;35493;50.276;9.372;2022-11-11T05:25:55;7.10;86.10
49413;DHT22;35493;50.276;9.372;2022-11-11T05:28:40;7.10;86.10
49413;DHT22;35493;50.276;9.372;2022-11-11T05:31:26;7.20;86.10
49413;DHT22;35493;50.276;9.372;2022-11-11T05:34:13;7.20;85.90
49413;DHT22;35493;50.276;9.372;2022-11-11T05:36:58;7.10;86.10
49413;DHT22;35493;50.276;9.372;2022-11-11T05:39:44;7.00;86.30
49413;DHT22;35493;50.276;9.372;2022-11-11T05:42:29;7.00;86.30
49413;DHT22;35493;50.276;9.372;2022-11-11T05:45:15;7.00;86.30
49413;DHT22;35493;50.276;9.372;2022-11-11T05:48:04;7.00;86.30
49413;DHT22;35493;50.276;9.372;2022-11-11T05:50:51;7.00;86.10
49413;DHT22;35493;50.276;9.372;2022-11-11T05:53:38;7.00;86.20
49413;DHT22;35493;50.276;9.372;2022-11-11T05:56:23;7.00;86.10
49413;DHT22;35493;50.276;9.372;2022-11-11T05:59:09;7.00;86.00
49413;DHT22;35493;50.276;9.372;2022-11-11T06:01:55;7.00;86.10
49413;DHT22;35493;50.276;9.372;2022-11-11T06:04:41;6.90;86.20
49413;DHT22;35493;50.276;9.372;2022-11-11T06:07:27;7.00;86.20
49413;DHT22;35493;50.276;9.372;2022-11-11T06:10:13;7.00;86.10
49413;DHT22;35493;50.276;9.372;2022-11-11T06:13:16;7.10;85.90
49413;DHT22;35493;50.276;9.372;2022-11-11T06:16:02;7.20;85.80
49413;DHT22;35493;50.276;9.372;2022-11-11T06:18:48;7.20;85.50
49413;DHT22;35493;50.276;9.372;2022-11-11T06:21:34;7.10;85.40
49413;DHT22;35493;50.276;9.372;2022-11-11T06:24:41;7.00;85.40
49413;DHT22;35493;50.276;9.372;2022-11-11T06:27:46;6.90;85.40
49413;DHT22;35493;50.276;9.372;2022-11-11T06:30:31;6.90;85.70
49413;DHT22;35493;50.276;9.372;2022-11-11T06:33:19;7.00;85.70
49413;DHT22;35493;50.276;9.372;2022-11-11T06:36:06;7.10;85.50
49413;DHT22;35493;50.276;9.372;2022-11-11T06:38:51;7.00;85.30
49413;DHT22;35493;50.276;9.372;2022-11-11T06:41:38;6.90;85.40
49413;DHT22;35493;50.276;9.372;2022-11-11T06:44:23;6.90;85.70
49413;DHT22;35493;50.276;9.372;2022-11-11T06:47:09;6.80;85.70
49413;DHT22;35493;50.276;9.372;2022-11-11T06:49:54;6.80;85.80
49413;DHT22;35493;50.276;9.372;2022-11-11T06:52:39;6.80;85.80
49413;DHT22;35493;50.276;9.372;2022-11-11T06:55:25;6.80;85.80
49413;DHT22;35493;50.276;9.372;2022-11-11T06:58:13;6.90;85.70
49413;DHT22;35493;50.276;9.372;2022-11-11T07:01:03;7.00;85.50
49413;DHT22;35493;50.276;9.372;2022-11-11T07:03:48;7.00;85.70
49413;DHT22;35493;50.276;9.372;2022-11-11T07:06:34;6.90;85.80
49413;DHT22;35493;50.276;9.372;2022-11-11T07:09:20;6.80;85.90
49413;DHT22;35493;50.276;9.372;2022-11-11T07:12:06;6.90;86.00
49413;DHT22;35493;50.276;9.372;2022-11-11T07:14:53;6.90;86.00
49413;DHT22;35493;50.276;9.372;2022-11-11T07:17:38;7.00;85.90
49413;DHT22;35493;50.276;9.372;2022-11-11T07:20:24;7.10;85.60
49413;DHT22;35493;50.276;9.372;2022-11-11T07:23:09;7.10;85.50
49413;DHT22;35493;50.276;9.372;2022-11-11T07:25:55;7.10;85.70
49413;DHT22;35493;50.276;9.372;2022-11-11T07:28:40;7.10;85.50
49413;DHT22;35493;50.276;9.372;2022-11-11T07:31:27;7.10;85.50
49413;DHT22;35493;50.276;9.372;2022-11-11T07:34:12;7.10;85.60
49413;DHT22;35493;50.276;9.372;2022-11-11T07:36:58;7.20;85.50
49413;DHT22;35493;50.276;9.372;2022-11-11T07:39:45;7.20;85.40
49413;DHT22;35493;50.276;9.372;2022-11-11T07:42:31;7.30;85.20
49413;DHT22;35493;50.276;9.372;2022-11-11T07:45:17;7.40;85.10
49413;DHT22;35493;50.276;9.372;2022-11-11T07:48:04;7.30;85.20
49413;DHT22;35493;50.276;9.372;2022-11-11T07:50:51;7.20;85.30
49413;DHT22;35493;50.276;9.372;2022-11-11T07:53:37;7.20;85.30
49413;DHT22;35493;50.276;9.372;2022-11-11T07:56:25;7.20;85.30
49413;DHT22;35493;50.276;9.372;2022-11-11T07:59:10;7.20;85.30
49413;DHT22;35493;50.276;9.372;2022-11-11T08:01:55;7.30;85.30
49413;DHT22;35493;50.276;9.372;2022-11-11T08:04:42;7.30;85.20
49413;DHT22;35493;50.276;9.372;2022-11-11T08:07:29;7.30;85.40
49413;DHT22;35493;50.276;9.372;2022-11-11T08:10:14;7.30;85.40
49413;DHT22;35493;50.276;9.372;2022-11-11T08:13:00;7.30;85.60
49413;DHT22;35493;50.276;9.372;2022-11-11T08:16:03;7.40;85.60
49413;DHT22;35493;50.276;9.372;2022-11-11T08:18:50;7.50;85.40
49413;DHT22;35493;50.276;9.372;2022-11-11T08:21:38;7.50;85.40
49413;DHT22;35493;50.276;9.372;2022-11-11T08:24:23;7.50;85.50
49413;DHT22;35493;50.276;9.372;2022-11-11T08:27:09;7.50;85.50
49413;DHT22;35493;50.276;9.372;2022-11-11T08:29:54;7.50;85.50
49413;DHT22;35493;50.276;9.372;2022-11-11T08:32:40;7.60;85.60
49413;DHT22;35493;50.276;9.372;2022-11-11T08:35:26;7.60;85.60
49413;DHT22;35493;50.276;9.372;2022-11-11T08:38:13;7.70;85.60
49413;DHT22;35493;50.276;9.372;2022-11-11T08:40:59;7.70;85.60
49413;DHT22;35493;50.276;9.372;2022-11-11T08:43:45;7.70;85.60
49413;DHT22;35493;50.276;9.372;2022-11-11T08:46:30;7.70;85.80
49413;DHT22;35493;50.276;9.372;2022-11-11T08:49:15;7.70;85.70
49413;DHT22;35493;50.276;9.372;2022-11-11T08:52:01;7.70;85.70
49413;DHT22;35493;50.276;9.372;2022-11-11T08:54:48;7.70;85.90
49413;DHT22;35493;50.276;9.372;2022-11-11T08:57:33;7.70;85.90
49413;DHT22;35493;50.276;9.372;2022-11-11T09:00:19;7.70;85.80
49413;DHT22;35493;50.276;9.372;2022-11-11T09:03:06;7.80;85.80
49413;DHT22;35493;50.276;9.372;2022-11-11T09:05:52;7.90;85.90
49413;DHT22;35493;50.276;9.372;2022-11-11T09:08:40;7.90;86.00
49413;DHT22;35493;50.276;9.372;2022-11-11T09:11:28;8.00;85.80
49413;DHT22;35493;50.276;9.372;2022-11-11T09:14:19;8.10;85.80
49413;DHT22;35493;50.276;9.372;2022-11-11T09:17:05;8.10;85.70
49413;DHT22;35493;50.276;9.372;2022-11-11T09:19:51;8.20;85.80
49413;DHT22;35493;50.276;9.372;2022-11-11T09:22:41;8.30;85.80
49413;DHT22;35493;50.276;9.372;2022-11-11T09:25:26;8.30;85.80
49413;DHT22;35493;50.276;9.372;2022-11-11T09:28:13;8.40;85.70
49413;DHT22;35493;50.276;9.372;2022-11-11T09:30:59;8.40;85.80
49413;DHT22;35493;50.276;9.372;2022-11-11T09:33:48;8.40;85.80
49413;DHT22;35493;50.276;9.372;2022-11-11T09:36:33;8.50;85.90
49413;DHT22;35493;50.276;9.372;2022-11-11T09:39:19;8.50;85.90
49413;DHT22;35493;50.276;9.372;2022-11-11T09:42:10;8.50;85.80
49413;DHT22;35493;50.276;9.372;2022-11-11T09:45:09;8.60;85.80
49413;DHT22;35493;50.276;9.372;2022-11-11T09:48:02;8.70;85.90
49413;DHT22;35493;50.276;9.372;2022-11-11T09:50:53;8.70;86.00
49413;DHT22;35493;50.276;9.372;2022-11-11T09:53:44;8.70;86.30
49413;DHT22;35493;50.276;9.372;2022-11-11T09:56:32;8.70;86.30
49413;DHT22;35493;50.276;9.372;2022-11-11T09:59:21;8.80;86.40
49413;DHT22;35493;50.276;9.372;2022-11-11T10:02:17;8.90;86.30
49413;DHT22;35493;50.276;9.372;2022-11-11T10:05:08;8.90;86.20
49413;DHT22;35493;50.276;9.372;2022-11-11T10:07:57;9.00;86.20
49413;DHT22;35493;50.276;9.372;2022-11-11T10:10:45;9.00;86.30
49413;DHT22;35493;50.276;9.372;2022-11-11T10:13:32;9.10;86.40
49413;DHT22;35493;50.276;9.372;2022-11-11T10:16:26;9.10;86.40
49413;DHT22;35493;50.276;9.372;2022-11-11T10:19:25;9.20;86.00
49413;DHT22;35493;50.276;9.372;2022-11-11T10:22:19;9.20;86.00
49413;DHT22;35493;50.276;9.372;2022-11-11T10:25:18;9.20;86.00
49413;DHT22;35493;50.276;9.372;2022-11-11T10:28:04;9.30;86.10
49413;DHT22;35493;50.276;9.372;2022-11-11T10:30:51;9.30;86.10
49413;DHT22;35493;50.276;9.372;2022-11-11T10:33:41;9.30;86.10
49413;DHT22;35493;50.276;9.372;2022-11-11T10:36:32;9.40;86.20
49413;DHT22;35493;50.276;9.372;2022-11-11T10:39:23;9.40;86.30
49413;DHT22;35493;50.276;9.372;2022-11-11T10:42:15;9.40;86.20
49413;DHT22;35493;50.276;9.372;2022-11-11T10:45:02;9.50;86.30
49413;DHT22;35493;50.276;9.372;2022-11-11T10:47:55;9.60;86.20
49413;DHT22;35493;50.276;9.372;2022-11-11T10:50:46;9.60;86.10
49413;DHT22;35493;50.276;9.372;2022-11-11T10:53:39;9.70;86.10
49413;DHT22;35493;50.276;9.372;2022-11-11T10:56:32;9.70;86.20
49413;DHT22;35493;50.276;9.372;2022-11-11T10:59:23;9.80;86.00
49413;DHT22;35493;50.276;9.372;2022-11-11T11:02:16;9.80;86.00
49413;DHT22;35493;50.276;9.372;2022-11-11T11:05:07;9.90;86.00
49413;DHT22;35493;50.276;9.372;2022-11-11T11:07:56;9.90;86.00
49413;DHT22;35493;50.276;9.372;2022-11-11T11:10:47;9.90;86.00
49413;DHT22;35493;50.276;9.372;2022-11-11T11:13:39;10.00;85.90
49413;DHT22;35493;50.276;9.372;2022-11-11T11:16:36;10.00;85.90
49413;DHT22;35493;50.276;9.372;2022-11-11T11:19:24;10.00;86.20
49413;DHT22;35493;50.276;9.372;2022-11-11T11:22:10;10.00;86.10
49413;DHT22;35493;50.276;9.372;2022-11-11T11:25:09;10.00;86.20
49413;DHT22;35493;50.276;9.372;2022-11-11T11:28:07;10.10;86.10
49413;DHT22;35493;50.276;9.372;2022-11-11T11:31:01;10.10;86.20
49413;DHT22;35493;50.276;9.372;2022-11-11T11:33:52;10.10;86.50
49413;DHT22;35493;50.276;9.372;2022-11-11T11:36:42;10.10;86.30
49413;DHT22;35493;50.276;9.372;2022-11-11T11:39:34;10.10;86.10
49413;DHT22;35493;50.276;9.372;2022-11-11T11:42:29;10.10;86.30
49413;DHT22;35493;50.276;9.372;2022-11-11T11:45:20;10.10;86.30
49413;DHT22;35493;50.276;9.372;2022-11-11T11:48:18;10.20;86.10
49413;DHT22;35493;50.276;9.372;2022-11-11T11:51:27;10.20;86.10
49413;DHT22;35493;50.276;9.372;2022-11-11T11:54:29;10.20;86.20
49413;DHT22;35493;50.276;9.372;2022-11-11T11:57:30;10.20;86.40
49413;DHT22;35493;50.276;9.372;2022-11-11T12:00:23;10.20;86.30
49413;DHT22;35493;50.276;9.372;2022-11-11T12:03:25;10.20;86.40
49413;DHT22;35493;50.276;9.372;2022-11-11T12:06:18;10.20;86.60
49413;DHT22;35493;50.276;9.372;2022-11-11T12:09:15;10.20;86.40
49413;DHT22;35493;50.276;9.372;2022-11-11T12:12:12;10.20;86.40
49413;DHT22;35493;50.276;9.372;2022-11-11T12:15:09;10.20;86.70
49413;DHT22;35493;50.276;9.372;2022-11-11T12:18:17;10.20;86.70
49413;DHT22;35493;50.276;9.372;2022-11-11T12:21:08;10.20;87.00
49413;DHT22;35493;50.276;9.372;2022-11-11T12:23:57;10.10;86.90
49413;DHT22;35493;50.276;9.372;2022-11-11T12:26:52;10.20;87.30
49413;DHT22;35493;50.276;9.372;2022-11-11T12:29:50;10.20;87.20
49413;DHT22;35493;50.276;9.372;2022-11-11T12:35:58;10.20;87.60
49413;DHT22;35493;50.276;9.372;2022-11-11T12:38:56;10.20;87.30
49413;DHT22;35493;50.276;9.372;2022-11-11T12:41:51;10.20;87.30
49413;DHT22;35493;50.276;9.372;2022-11-11T12:44:45;10.20;87.30
49413;DHT22;35493;50.276;9.372;2022-11-11T12:47:39;10.20;87.30
49413;DHT22;35493;50.276;9.372;2022-11-11T12:50:35;10.20;87.20
49413;DHT22;35493;50.276;9.372;2022-11-11T12:53:31;10.20;87.20
49413;DHT22;35493;50.276;9.372;2022-11-11T12:56:24;10.20;87.20
49413;DHT22;35493;50.276;9.372;2022-11-11T12:59:19;10.30;87.10
49413;DHT22;35493;50.276;9.372;2022-11-11T13:02:23;10.30;87.10
49413;DHT22;35493;50.276;9.372;2022-11-11T13:05:13;10.30;87.00
49413;DHT22;35493;50.276;9.372;2022-11-11T13:11:32;10.30;87.50
49413;DHT22;35493;50.276;9.372;2022-11-11T13:14:36;10.30;87.30
49413;DHT22;35493;50.276;9.372;2022-11-11T13:17:23;10.30;87.40
49413;DHT22;35493;50.276;9.372;2022-11-11T13:20:18;10.40;87.30
49413;DHT22;35493;50.276;9.372;2022-11-11T13:23:07;10.40;87.20
49413;DHT22;35493;50.276;9.372;2022-11-11T13:26:00;10.40;87.30
49413;DHT22;35493;50.276;9.372;2022-11-11T13:28:49;10.40;87.90
49413;DHT22;35493;50.276;9.372;2022-11-11T13:31:37;10.40;87.60
49413;DHT22;35493;50.276;9.372;2022-11-11T13:34:25;10.40;87.40
49413;DHT22;35493;50.276;9.372;2022-11-11T13:37:21;10.40;87.50
49413;DHT22;35493;50.276;9.372;2022-11-11T13:40:29;10.40;87.40
49413;DHT22;35493;50.276;9.372;2022-11-11T13:43:18;10.40;87.60
49413;DHT22;35493;50.276;9.372;2022-11-11T13:46:23;10.40;87.50
49413;DHT22;35493;50.276;9.372;2022-11-11T13:49:21;10.40;87.60
49413;DHT22;35493;50.276;9.372;2022-11-11T13:52:20;10.50;87.50
49413;DHT22;35493;50.276;9.372;2022-11-11T13:55:08;10.50;87.40
49413;DHT22;35493;50.276;9.372;2022-11-11T13:58:06;10.50;87.70
49413;DHT22;35493;50.276;9.372;2022-11-11T14:01:03;10.50;88.00
49413;DHT22;35493;50.276;9.372;2022-11-11T14:04:03;10.50;87.80
49413;DHT22;35493;50.276;9.372;2022-11-11T14:06:51;10.50;87.70
49413;DHT22;35493;50.276;9.372;2022-11-11T14:10:07;10.50;88.00
49413;DHT22;35493;50.276;9.372;2022-11-11T14:12:53;10.50;87.90
49413;DHT22;35493;50.276;9.372;2022-11-11T14:15:41;10.40;87.70
49413;DHT22;35493;50.276;9.372;2022-11-11T14:18:38;10.50;87.90
49413;DHT22;35493;50.276;9.372;2022-11-11T14:21:46;10.50;87.90
49413;DHT22;35493;50.276;9.372;2022-11-11T14:24:35;10.50;87.70
49413;DHT22;35493;50.276;9.372;2022-11-11T14:27:26;10.50;87.80
49413;DHT22;35493;50.276;9.372;2022-11-11T14:30:27;10.50;87.70
49413;DHT22;35493;50.276;9.372;2022-11-11T14:33:20;10.50;87.80
49413;DHT22;35493;50.276;9.372;2022-11-11T14:36:18;10.50;87.80
49413;DHT22;35493;50.276;9.372;2022-11-11T14:39:15;10.50;87.80
49413;DHT22;35493;50.276;9.372;2022-11-11T14:42:03;10.50;87.80
49413;DHT22;35493;50.276;9.372;2022-11-11T14:44:50;10.50;87.80
49413;DHT22;35493;50.276;9.372;2022-11-11T14:47:37;10.50;87.90
49413;DHT22;35493;50.276;9.372;2022-11-11T14:50:42;10.50;88.00
49413;DHT22;35493;50.276;9.372;2022-11-11T14:53:35;10.50;88.00
49413;DHT22;35493;50.276;9.372;2022-11-11T14:56:23;10.50;88.10
49413;DHT22;35493;50.276;9.372;2022-11-11T14:59:12;10.50;88.10
49413;DHT22;35493;50.276;9.372;2022-11-11T15:02:02;10.40;88.10
49413;DHT22;35493;50.276;9.372;2022-11-11T15:04:50;10.40;88.20
49413;DHT22;35493;50.276;9.372;2022-11-11T15:07:52;10.40;88.20
49413;DHT22;35493;50.276;9.372;2022-11-11T15:11:01;10.40;88.20
49413;DHT22;35493;50.276;9.372;2022-11-11T15:14:04;10.30;88.20
49413;DHT22;35493;50.276;9.372;2022-11-11T15:17:03;10.30;88.20
49413;DHT22;35493;50.276;9.372;2022-11-11T15:20:00;10.30;88.30
49413;DHT22;35493;50.276;9.372;2022-11-11T15:23:00;10.30;88.30
49413;DHT22;35493;50.276;9.372;2022-11-11T15:25:54;10.30;88.30
49413;DHT22;35493;50.276;9.372;2022-11-11T15:29:05;10.20;88.30
49413;DHT22;35493;50.276;9.372;2022-11-11T15:32:02;10.20;88.30
49413;DHT22;35493;50.276;9.372;2022-11-11T15:34:55;10.20;88.30
49413;DHT22;35493;50.276;9.372;2022-11-11T15:37:45;10.20;88.40
49413;DHT22;35493;50.276;9.372;2022-11-11T15:40:43;10.10;88.40
49413;DHT22;35493;50.276;9.372;2022-11-11T15:43:31;10.10;88.40
49413;DHT22;35493;50.276;9.372;2022-11-11T15:46:22;10.10;88.50
49413;DHT22;35493;50.276;9.372;2022-11-11T15:49:12;10.00;88.50
49413;DHT22;35493;50.276;9.372;2022-11-11T15:51:59;10.00;88.50
49413;DHT22;35493;50.276;9.372;2022-11-11T15:54:45;10.00;88.60
49413;DHT22;35493;50.276;9.372;2022-11-11T15:57:31;9.90;88.60
49413;DHT22;35493;50.276;9.372;2022-11-11T16:00:35;9.90;88.50
49413;DHT22;35493;50.276;9.372;2022-11-11T16:03:27;9.90;88.50
49413;DHT22;35493;50.276;9.372;2022-11-11T16:06:15;9.80;88.40
49413;DHT22;35493;50.276;9.372;2022-11-11T16:09:02;9.80;88.40
49413;DHT22;35493;50.276;9.372;2022-11-11T16:11:48;9.80;88.40
49413;DHT22;35493;50.276;9.372;2022-11-11T16:14:37;9.70;88.40
49413;DHT22;35493;50.276;9.372;2022-11-11T16:17:27;9.70;88.40
49413;DHT22;35493;50.276;9.372;2022-11-11T16:20:24;9.70;88.40
49413;DHT22;35493;50.276;9.372;2022-11-11T16:23:16;9.70;88.40
49413;DHT22;35493;50.276;9.372;2022-11-11T16:26:02;9.60;88.30
49413;DHT22;35493;50.276;9.372;2022-11-11T16:28:55;9.60;88.40
49413;DHT22;35493;50.276;9.372;2022-11-11T16:31:42;9.50;88.30
49413;DHT22;35493;50.276;9.372;2022-11-11T16:34:42;9.50;88.20
49413;DHT22;35493;50.276;9.372;2022-11-11T16:37:49;9.40;88.20
49413;DHT22;35493;50.276;9.372;2022-11-11T16:40:42;9.40;88.30
49413;DHT22;35493;50.276;9.372;2022-11-11T16:43:30;9.40;88.20
49413;DHT22;35493;50.276;9.372;2022-11-11T16:46:38;9.40;88.10
49413;DHT22;35493;50.276;9.372;2022-11-11T16:49:27;9.40;88.10
49413;DHT22;35493;50.276;9.372;2022-11-11T16:52:16;9.40;88.10
49413;DHT22;35493;50.276;9.372;2022-11-11T16:55:07;9.30;88.00
49413;DHT22;35493;50.276;9.372;2022-11-11T16:57:54;9.20;88.00
49413;DHT22;35493;50.276;9.372;2022-11-11T17:00:40;9.20;88.00
49413;DHT22;35493;50.276;9.372;2022-11-11T17:03:27;9.20;87.90
49413;DHT22;35493;50.276;9.372;2022-11-11T17:06:13;9.10;87.90
49413;DHT22;35493;50.276;9.372;2022-11-11T17:08:58;9.10;87.90
49413;DHT22;35493;50.276;9.372;2022-11-11T17:11:48;9.10;87.80
49413;DHT22;35493;50.276;9.372;2022-11-11T17:14:36;9.00;87.70
49413;DHT22;35493;50.276;9.372;2022-11-11T17:17:22;9.00;87.70
49413;DHT22;35493;50.276;9.372;2022-11-11T17:20:10;8.90;87.70
49413;DHT22;35493;50.276;9.372;2022-11-11T17:22:57;9.00;87.60
49413;DHT22;35493;50.276;9.372;2022-11-11T17:25:53;8.90;87.70
49413;DHT22;35493;50.276;9.372;2022-11-11T17:28:40;8.90;87.70
49413;DHT22;35493;50.276;9.372;2022-11-11T17:31:26;8.90;87.80
49413;DHT22;35493;50.276;9.372;2022-11-11T17:34:12;8.80;87.70
49413;DHT22;35493;50.276;9.372;2022-11-11T17:37:00;8.80;87.70
49413;DHT22;35493;50.276;9.372;2022-11-11T17:39:46;8.80;87.70
49413;DHT22;35493;50.276;9.372;2022-11-11T17:42:32;8.70;87.70
49413;DHT22;35493;50.276;9.372;2022-11-11T17:45:21;8.70;87.70
49413;DHT22;35493;50.276;9.372;2022-11-11T17:48:07;8.70;87.70
49413;DHT22;35493;50.276;9.372;2022-11-11T17:50:53;8.60;87.60
49413;DHT22;35493;50.276;9.372;2022-11-11T17:53:41;8.60;87.60
49413;DHT22;35493;50.276;9.372;2022-11-11T17:56:26;8.50;87.60
49413;DHT22;35493;50.276;9.372;2022-11-11T17:59:12;8.50;87.60
49413;DHT22;35493;50.276;9.372;2022-11-11T18:02:01;8.50;87.60
49413;DHT22;35493;50.276;9.372;2022-11-11T18:04:47;8.50;87.60
49413;DHT22;35493;50.276;9.372;2022-11-11T18:07:32;8.40;87.50
49413;DHT22;35493;50.276;9.372;2022-11-11T18:10:17;8.40;87.50
49413;DHT22;35493;50.276;9.372;2022-11-11T18:13:03;8.40;87.50
49413;DHT22;35493;50.276;9.372;2022-11-11T18:15:48;8.40;87.50
49413;DHT22;35493;50.276;9.372;2022-11-11T18:18:35;8.30;87.50